createdAt,value
2018-06-10T00:01:32.419Z,23.45
2018-06-10T00:04:10.458Z,23.49
2018-06-10T00:06:48.265Z,23.97
2018-06-10T00:09:26.274Z,22.85
2018-06-10T00:12:04.292Z,23.41
2018-06-10T00:14:42.308Z,23.72
2018-06-10T00:17:20.966Z,23.26
2018-06-10T00:19:58.106Z,23.64
2018-06-10T00:22:36.415Z,22.97
2018-06-10T00:25:18.731Z,23.08
2018-06-10T00:27:57.313Z,23.52
2018-06-10T00:30:34.499Z,23.30
2018-06-10T00:33:12.846Z,22.36
2018-06-10T00:35:50.545Z,22.82
2018-06-10T00:38:28.558Z,23.01
2018-06-10T00:41:06.660Z,22.32
2018-06-10T00:43:43.874Z,22.42
2018-06-10T00:46:21.208Z,23.43
2018-06-10T00:48:58.090Z,23.76
2018-06-10T00:51:36.276Z,22.43
2018-06-10T00:54:13.539Z,22.80
2018-06-10T00:56:57.231Z,22.65
2018-06-10T00:59:35.315Z,22.84
2018-06-10T01:02:12.705Z,22.69
2018-06-10T01:04:51.056Z,23.10
2018-06-10T01:07:28.506Z,23.05
2018-06-10T01:10:06.679Z,23.33
2018-06-10T01:12:44.485Z,23.04
2018-06-10T01:15:20.061Z,23.85
2018-06-10T01:17:57.927Z,23.29
2018-06-10T01:20:35.815Z,22.62
2018-06-10T01:23:13.275Z,24.16
2018-06-10T01:25:51.316Z,23.93
2018-06-10T01:28:31.499Z,23.11
2018-06-10T01:31:09.891Z,23.30
2018-06-10T01:33:48.114Z,23.80
2018-06-10T01:36:25.852Z,23.49
2018-06-10T01:39:04.077Z,23.90
2018-06-10T01:41:41.513Z,23.26
2018-06-10T01:44:19.406Z,23.57
2018-06-10T01:46:57.756Z,22.63
2018-06-10T01:49:35.467Z,23.68
2018-06-10T01:52:13.281Z,23.10
2018-06-10T01:54:50.516Z,23.99
2018-06-10T01:57:27.291Z,24.04
2018-06-10T02:00:05.578Z,24.67
2018-06-10T02:02:43.301Z,24.55
2018-06-10T02:05:23.300Z,23.78
2018-06-10T02:08:00.714Z,24.64
2018-06-10T02:10:38.679Z,24.36
2018-06-10T02:13:16.720Z,24.65
2018-06-10T02:15:54.923Z,24.74
2018-06-10T02:18:34.339Z,24.34
2018-06-10T02:21:13.476Z,23.73
2018-06-10T02:23:56.754Z,24.07
2018-06-10T02:29:25.270Z,24.21
2018-06-10T02:32:02.751Z,24.29
2018-06-10T02:34:41.343Z,25.01
2018-06-10T02:37:19.415Z,24.27
2018-06-10T02:39:57.938Z,24.78
2018-06-10T02:42:36.884Z,25.82
2018-06-10T02:45:16.270Z,25.51
2018-06-10T02:47:53.761Z,24.94
2018-06-10T02:50:31.087Z,25.33
2018-06-10T02:53:08.856Z,25.27
2018-06-10T02:55:47.086Z,26.41
2018-06-10T02:58:24.546Z,25.58
2018-06-10T03:01:03.261Z,26.09
2018-06-10T03:03:40.853Z,26.41
2018-06-10T03:06:18.827Z,26.12
2018-06-10T03:08:56.083Z,26.45
2018-06-10T03:11:33.201Z,25.69
2018-06-10T03:14:11.210Z,26.01
2018-06-10T03:16:48.674Z,26.25
2018-06-10T03:19:26.838Z,26.23
2018-06-10T03:22:04.286Z,27.17
2018-06-10T03:24:42.280Z,26.83
2018-06-10T03:27:19.323Z,27.31
2018-06-10T03:29:57.876Z,26.90
2018-06-10T03:32:35.461Z,26.37
2018-06-10T03:35:13.422Z,26.83
2018-06-10T03:37:52.280Z,26.77
2018-06-10T03:40:28.010Z,27.49
2018-06-10T03:43:06.682Z,27.30
2018-06-10T03:45:45.341Z,27.19
2018-06-10T03:48:23.087Z,27.20
2018-06-10T03:51:00.730Z,27.07
2018-06-10T03:53:38.590Z,27.01
2018-06-10T03:56:16.443Z,27.53
2018-06-10T03:58:53.956Z,27.08
2018-06-10T04:01:31.473Z,28.08
2018-06-10T04:04:08.922Z,28.10
2018-06-10T04:06:46.842Z,27.39
2018-06-10T04:09:25.427Z,27.85
2018-06-10T04:12:03.490Z,27.87
2018-06-10T04:14:40.771Z,27.50
2018-06-10T04:17:17.863Z,27.58
2018-06-10T04:19:55.566Z,27.94
2018-06-10T04:22:33.875Z,27.82
2018-06-10T04:25:10.808Z,27.90
2018-06-10T04:27:48.664Z,28.59
2018-06-10T04:30:26.668Z,28.59
2018-06-10T04:33:04.273Z,28.28
2018-06-10T04:35:41.970Z,27.76
2018-06-10T04:38:19.124Z,28.71
2018-06-10T04:40:57.488Z,28.81
2018-06-10T04:43:34.216Z,28.97
2018-06-10T04:46:12.268Z,28.03
2018-06-10T04:48:50.310Z,28.29
2018-06-10T04:51:27.884Z,28.28
2018-06-10T04:54:05.945Z,28.08
2018-06-10T04:56:44.410Z,29.22
2018-06-10T04:59:22.878Z,28.39
2018-06-10T05:02:00.849Z,28.28
2018-06-10T05:04:39.310Z,29.22
2018-06-10T05:07:18.847Z,29.33
2018-06-10T05:09:56.206Z,29.06
2018-06-10T05:12:36.470Z,28.38
2018-06-10T05:15:13.689Z,29.74
2018-06-10T05:17:51.305Z,29.40
2018-06-10T05:20:28.857Z,30.04
2018-06-10T05:23:07.303Z,29.37
2018-06-10T05:25:44.863Z,29.31
2018-06-10T05:30:49.809Z,29.81
2018-06-10T05:33:28.180Z,30.67
2018-06-10T05:36:04.960Z,29.70
2018-06-10T05:38:42.308Z,30.20
2018-06-10T05:41:19.687Z,30.57
2018-06-10T05:43:57.093Z,31.09
2018-06-10T05:46:34.472Z,30.44
2018-06-10T05:49:12.451Z,30.62
2018-06-10T05:51:51.076Z,30.24
2018-06-10T05:54:28.684Z,30.26
2018-06-10T05:57:06.431Z,30.94
2018-06-10T05:59:43.834Z,30.84
2018-06-10T06:02:21.791Z,30.72
2018-06-10T06:05:00.117Z,30.80
2018-06-10T06:07:40.478Z,30.79
2018-06-10T06:10:18.563Z,31.52
2018-06-10T06:12:57.299Z,31.42
2018-06-10T06:15:35.440Z,31.66
2018-06-10T06:18:14.426Z,31.39
2018-06-10T06:20:52.862Z,31.31
2018-06-10T06:23:31.410Z,31.14
2018-06-10T06:26:09.463Z,31.46
2018-06-10T06:28:46.449Z,31.72
2018-06-10T06:31:25.131Z,31.27
2018-06-10T06:34:03.550Z,31.17
2018-06-10T06:36:39.287Z,31.70
2018-06-10T06:39:17.274Z,31.17
2018-06-10T06:41:54.841Z,31.57
2018-06-10T06:44:32.845Z,31.93
2018-06-10T06:47:10.253Z,32.38
2018-06-10T06:49:48.327Z,31.86
2018-06-10T06:52:26.777Z,32.23
2018-06-10T06:55:04.687Z,32.01
2018-06-10T06:57:43.316Z,32.48
2018-06-10T07:00:20.912Z,31.65
2018-06-10T07:02:59.449Z,32.59
2018-06-10T07:05:36.857Z,32.64
2018-06-10T07:08:14.852Z,31.46
2018-06-10T07:10:53.091Z,32.44
2018-06-10T07:13:31.455Z,32.99
2018-06-10T07:16:09.499Z,33.09
2018-06-10T07:18:47.936Z,32.67
2018-06-10T07:21:25.451Z,32.76
2018-06-10T07:24:04.941Z,33.09
2018-06-10T07:26:42.702Z,33.70
2018-06-10T07:29:21.755Z,33.72
2018-06-10T07:31:59.857Z,32.80
2018-06-10T07:34:38.585Z,33.86
2018-06-10T07:37:16.505Z,33.34
2018-06-10T07:39:54.742Z,33.92
2018-06-10T07:42:33.428Z,34.19
2018-06-10T07:45:11.935Z,32.92
2018-06-10T07:47:49.784Z,33.85
2018-06-10T07:50:27.434Z,33.32
2018-06-10T07:53:05.397Z,33.37
2018-06-10T07:55:44.071Z,32.97
2018-06-10T07:58:21.848Z,33.84
2018-06-10T08:01:00.427Z,33.35
2018-06-10T08:03:36.766Z,33.28
2018-06-10T08:06:14.329Z,33.74
2018-06-10T08:08:51.274Z,34.24
2018-06-10T08:11:29.540Z,33.54
2018-06-10T08:14:06.870Z,33.43
2018-06-10T08:16:44.319Z,33.51
2018-06-10T08:19:21.839Z,34.31
2018-06-10T08:21:58.854Z,33.44
2018-06-10T08:24:36.510Z,33.58
2018-06-10T08:27:13.876Z,34.14
2018-06-10T08:29:50.859Z,34.36
2018-06-10T08:32:28.412Z,34.45
2018-06-10T08:35:05.250Z,33.47
2018-06-10T08:37:42.314Z,33.64
2018-06-10T08:40:17.771Z,33.83
2018-06-10T08:42:55.671Z,33.39
2018-06-10T08:45:33.279Z,34.54
2018-06-10T08:48:11.437Z,33.92
2018-06-10T08:50:48.753Z,34.26
2018-06-10T08:53:26.882Z,34.02
2018-06-10T08:56:04.890Z,34.32
2018-06-10T08:58:42.313Z,34.95
2018-06-10T09:01:19.675Z,34.75
2018-06-10T09:03:57.455Z,33.95
2018-06-10T09:06:35.214Z,34.99
2018-06-10T09:09:14.850Z,35.28
2018-06-10T09:11:53.681Z,34.44
2018-06-10T09:14:31.613Z,33.97
2018-06-10T09:17:09.423Z,34.01
2018-06-10T09:19:46.943Z,34.32
2018-06-10T09:22:24.747Z,34.91
2018-06-10T09:25:03.366Z,35.40
2018-06-10T09:27:41.297Z,35.16
2018-06-10T09:30:18.845Z,34.40
2018-06-10T09:32:56.486Z,35.58
2018-06-10T09:35:31.778Z,35.21
2018-06-10T09:38:09.404Z,34.98
2018-06-10T09:40:47.577Z,35.01
2018-06-10T09:43:26.087Z,35.44
2018-06-10T09:46:03.875Z,34.60
2018-06-10T09:48:41.847Z,34.63
2018-06-10T09:51:20.471Z,35.30
2018-06-10T09:53:58.863Z,34.79
2018-06-10T09:56:36.842Z,34.96
2018-06-10T09:59:14.853Z,34.97
2018-06-10T10:01:52.424Z,35.53
2018-06-10T10:04:29.865Z,35.14
2018-06-10T10:07:08.910Z,35.63
2018-06-10T10:09:44.293Z,35.04
2018-06-10T10:12:22.508Z,35.72
2018-06-10T10:15:00.451Z,35.96
2018-06-10T10:17:39.927Z,35.07
2018-06-10T10:20:18.277Z,34.93
2018-06-10T10:22:56.576Z,35.62
2018-06-10T10:25:34.334Z,35.46
2018-06-10T10:28:09.265Z,35.38
2018-06-10T10:30:46.519Z,35.82
2018-06-10T10:33:23.826Z,35.77
2018-06-10T10:36:01.586Z,35.37
2018-06-10T10:38:38.925Z,35.61
2018-06-10T10:41:16.120Z,35.34
2018-06-10T10:43:52.987Z,36.01
2018-06-10T10:46:30.309Z,35.43
2018-06-10T10:49:08.319Z,35.47
2018-06-10T10:51:43.414Z,35.78
2018-06-10T10:54:20.264Z,35.29
2018-06-10T10:56:58.117Z,35.80
2018-06-10T10:59:36.450Z,35.37
2018-06-10T11:02:12.447Z,36.31
2018-06-10T11:04:49.269Z,36.11
2018-06-10T11:07:24.517Z,36.10
2018-06-10T11:10:01.882Z,35.65
2018-06-10T11:12:39.757Z,35.89
2018-06-10T11:15:17.795Z,36.26
2018-06-10T11:17:53.082Z,36.18
2018-06-10T11:20:30.347Z,35.89
2018-06-10T11:23:08.551Z,35.67
2018-06-10T11:25:46.425Z,36.03
2018-06-10T11:28:23.701Z,36.31
2018-06-10T11:31:01.503Z,36.27
2018-06-10T11:33:36.038Z,36.47
2018-06-10T11:36:14.880Z,36.00
2018-06-10T11:38:52.081Z,35.41
2018-06-10T11:41:29.848Z,36.48
2018-06-10T11:44:07.856Z,35.80
2018-06-10T11:46:44.660Z,36.56
2018-06-10T11:49:21.762Z,36.13
2018-06-10T11:51:59.909Z,36.28
2018-06-10T11:54:38.432Z,36.60
2018-06-10T11:57:15.746Z,36.61
2018-06-10T11:59:53.256Z,36.17
2018-06-10T12:02:30.458Z,36.00
2018-06-10T12:05:07.839Z,35.86
2018-06-10T12:07:46.264Z,36.25
2018-06-10T12:10:23.448Z,35.87
2018-06-10T12:12:59.283Z,35.38
2018-06-10T12:15:38.060Z,35.82
2018-06-10T12:18:15.839Z,36.36
2018-06-10T12:20:53.466Z,35.75
2018-06-10T12:23:30.541Z,35.87
2018-06-10T12:26:07.921Z,36.21
2018-06-10T12:28:45.543Z,36.75
2018-06-10T12:31:23.676Z,36.31
2018-06-10T12:34:00.858Z,36.92
2018-06-10T12:36:40.222Z,36.32
2018-06-10T12:39:18.076Z,36.57
2018-06-10T12:41:55.505Z,36.36
2018-06-10T12:44:33.639Z,36.49
2018-06-10T12:50:08.273Z,36.11
2018-06-10T12:52:45.753Z,36.68
2018-06-10T12:55:23.102Z,37.15
2018-06-10T12:58:01.103Z,36.77
2018-06-10T13:00:39.794Z,35.60
2018-06-10T13:03:17.798Z,36.53
2018-06-10T13:05:56.269Z,36.04
2018-06-10T13:08:34.478Z,35.79
2018-06-10T13:11:11.760Z,36.15
2018-06-10T13:13:50.428Z,35.57
2018-06-10T13:16:27.966Z,36.84
2018-06-10T13:19:05.091Z,36.56
2018-06-10T13:21:42.496Z,36.07
2018-06-10T13:24:20.461Z,35.86
2018-06-10T13:26:57.515Z,36.08
2018-06-10T13:29:34.856Z,36.41
2018-06-10T13:32:12.577Z,37.24
2018-06-10T13:34:49.453Z,36.46
2018-06-10T13:37:27.779Z,36.67
2018-06-10T13:40:04.262Z,36.72
2018-06-10T13:42:42.652Z,36.69
2018-06-10T13:45:19.512Z,36.61
2018-06-10T13:47:56.650Z,36.03
2018-06-10T13:50:34.952Z,36.53
2018-06-10T13:53:13.437Z,36.91
2018-06-10T13:55:52.145Z,36.12
2018-06-10T13:58:29.761Z,37.36
2018-06-10T14:01:08.265Z,36.36
2018-06-10T14:03:45.858Z,36.25
2018-06-10T14:06:24.549Z,36.31
2018-06-10T14:09:02.271Z,36.48
2018-06-10T14:11:40.090Z,37.43
2018-06-10T14:14:17.275Z,36.46
2018-06-10T14:16:55.813Z,37.21
2018-06-10T14:19:33.349Z,36.70
2018-06-10T14:22:11.265Z,37.53
2018-06-10T14:24:48.330Z,36.94
2018-06-10T14:27:25.857Z,36.24
2018-06-10T14:30:03.854Z,36.25
2018-06-10T14:32:41.749Z,36.66
2018-06-10T14:36:20.284Z,36.57
2018-06-10T14:38:57.837Z,37.05
2018-06-10T14:41:35.758Z,37.00
2018-06-10T14:44:13.424Z,37.15
2018-06-10T14:46:51.316Z,37.32
2018-06-10T14:49:29.356Z,37.15
2018-06-10T14:52:07.852Z,36.68
2018-06-10T14:54:44.766Z,37.15
2018-06-10T14:57:22.261Z,36.89
2018-06-10T15:00:00.494Z,37.37
2018-06-10T15:02:38.544Z,37.41
2018-06-10T15:05:16.277Z,37.25
2018-06-10T15:07:51.980Z,37.12
2018-06-10T15:10:29.274Z,37.01
2018-06-10T15:13:07.102Z,36.87
2018-06-10T15:15:45.526Z,37.35
2018-06-10T15:18:24.249Z,37.55
2018-06-10T15:21:02.267Z,37.82
2018-06-10T15:23:40.267Z,37.06
2018-06-10T15:26:18.109Z,38.14
2018-06-10T15:28:55.538Z,38.15
2018-06-10T15:31:32.862Z,38.48
2018-06-10T15:34:10.592Z,38.35
2018-06-10T15:36:47.524Z,37.81
2018-06-10T15:39:25.002Z,38.31
2018-06-10T15:42:03.597Z,37.82
2018-06-10T15:44:41.271Z,38.49
2018-06-10T15:47:19.943Z,38.18
2018-06-10T15:49:57.526Z,37.54
2018-06-10T15:52:35.094Z,37.86
2018-06-10T15:55:12.820Z,37.78
2018-06-10T15:57:50.323Z,37.98
2018-06-10T16:00:28.805Z,38.08
2018-06-10T16:03:06.818Z,37.83
2018-06-10T16:05:44.493Z,37.80
2018-06-10T16:08:21.488Z,38.36
2018-06-10T16:10:56.771Z,37.96
2018-06-10T16:13:33.887Z,37.76
2018-06-10T16:16:11.214Z,37.44
2018-06-10T16:18:49.312Z,37.57
2018-06-10T16:21:26.872Z,37.65
2018-06-10T16:24:05.437Z,37.07
2018-06-10T16:26:41.656Z,37.40
2018-06-10T16:29:19.673Z,38.31
2018-06-10T16:31:57.098Z,37.90
2018-06-10T16:34:35.214Z,37.03
2018-06-10T16:37:12.802Z,38.10
2018-06-10T16:39:50.806Z,37.68
2018-06-10T16:42:27.852Z,37.57
2018-06-10T16:45:04.757Z,37.40
2018-06-10T16:47:42.427Z,37.48
2018-06-10T16:50:19.269Z,36.88
2018-06-10T16:52:56.333Z,36.61
2018-06-10T16:55:31.692Z,36.97
2018-06-10T16:58:09.466Z,37.46
2018-06-10T17:00:44.266Z,36.71
2018-06-10T17:03:21.460Z,37.29
2018-06-10T17:05:58.271Z,36.62
2018-06-10T17:08:35.583Z,36.81
2018-06-10T17:11:12.896Z,37.34
2018-06-10T17:13:50.828Z,37.20
2018-06-10T17:16:29.535Z,36.50
2018-06-10T17:19:05.425Z,37.05
2018-06-10T17:21:43.463Z,37.28
2018-06-10T17:24:21.213Z,37.21
2018-06-10T17:26:59.260Z,36.49
2018-06-10T17:29:37.848Z,37.36
2018-06-10T17:32:15.287Z,37.32
2018-06-10T17:34:52.842Z,36.42
2018-06-10T17:37:30.257Z,36.70
2018-06-10T17:40:08.136Z,37.11
2018-06-10T17:42:46.878Z,36.39
2018-06-10T17:45:23.010Z,35.86
2018-06-10T17:47:59.441Z,36.02
2018-06-10T17:50:37.071Z,36.46
2018-06-10T17:53:14.433Z,36.15
2018-06-10T17:55:53.088Z,37.74
2018-06-10T17:58:30.262Z,38.93
2018-06-10T18:01:08.089Z,39.53
2018-06-10T18:03:45.754Z,38.53
2018-06-10T18:06:23.232Z,38.72
2018-06-10T18:09:00.266Z,38.09
2018-06-10T18:11:38.259Z,38.34
2018-06-10T18:14:15.492Z,38.34
2018-06-10T18:16:52.760Z,36.90
2018-06-10T18:19:28.273Z,37.60
2018-06-10T18:22:04.106Z,36.95
2018-06-10T18:24:40.129Z,36.73
2018-06-10T18:27:17.090Z,37.36
2018-06-10T18:29:53.270Z,37.40
2018-06-10T18:32:29.217Z,37.48
2018-06-10T18:35:05.087Z,36.90
2018-06-10T18:37:40.856Z,36.59
2018-06-10T18:40:16.848Z,36.24
2018-06-10T18:42:52.523Z,36.49
2018-06-10T18:45:28.109Z,35.89
2018-06-10T18:48:04.067Z,36.28
2018-06-10T18:50:39.910Z,35.07
2018-06-10T18:53:16.168Z,35.49
2018-06-10T18:55:53.278Z,34.60
2018-06-10T18:58:29.087Z,34.65
2018-06-10T19:01:05.258Z,34.17
2018-06-10T19:03:40.925Z,34.00
2018-06-10T19:06:16.840Z,34.66
2018-06-10T19:08:52.814Z,33.70
2018-06-10T19:11:28.520Z,34.25
2018-06-10T19:14:02.236Z,33.12
2018-06-10T19:16:38.088Z,33.58
2018-06-10T19:19:14.812Z,33.05
2018-06-10T19:21:50.779Z,33.10
2018-06-10T19:24:26.881Z,33.33
2018-06-10T19:27:03.272Z,32.53
2018-06-10T19:29:37.266Z,32.95
2018-06-10T19:32:13.543Z,32.71
2018-06-10T19:34:51.099Z,32.46
2018-06-10T19:37:27.271Z,31.90
2018-06-10T19:40:01.318Z,32.74
2018-06-10T19:42:37.557Z,32.47
2018-06-10T19:45:13.966Z,31.86
2018-06-10T19:47:50.485Z,31.87
2018-06-10T19:50:26.912Z,31.58
2018-06-10T19:53:03.347Z,31.14
2018-06-10T19:55:39.755Z,31.94
2018-06-10T19:58:16.339Z,31.54
2018-06-10T20:00:52.934Z,31.51
2018-06-10T20:03:29.693Z,31.71
2018-06-10T20:06:06.323Z,30.87
2018-06-10T20:08:42.702Z,30.69
2018-06-10T20:11:19.210Z,30.77
2018-06-10T20:13:55.522Z,30.77
2018-06-10T20:16:31.953Z,30.71
2018-06-10T20:19:08.275Z,31.20
2018-06-10T20:21:44.417Z,30.04
2018-06-10T20:24:20.847Z,31.01
2018-06-10T20:26:57.110Z,30.12
2018-06-10T20:29:33.504Z,30.65
2018-06-10T20:32:11.093Z,30.51
2018-06-10T20:34:47.271Z,30.68
2018-06-10T20:37:23.661Z,29.93
2018-06-10T20:40:00.209Z,31.68
2018-06-10T20:42:36.429Z,32.41
2018-06-10T20:45:13.539Z,32.50
2018-06-10T20:47:49.432Z,31.42
2018-06-10T20:50:26.721Z,32.78
2018-06-10T20:53:04.209Z,32.50
2018-06-10T20:55:41.257Z,32.04
2018-06-10T20:58:17.423Z,32.23
2018-06-10T21:00:54.731Z,31.97
2018-06-10T21:03:31.276Z,33.14
2018-06-10T21:06:07.843Z,31.07
2018-06-10T21:08:44.306Z,31.37
2018-06-10T21:11:20.519Z,30.41
2018-06-10T21:13:58.410Z,29.94
2018-06-10T21:16:34.835Z,29.99
2018-06-10T21:19:11.204Z,29.33
2018-06-10T21:21:47.329Z,29.79
2018-06-10T21:24:24.315Z,28.88
2018-06-10T21:26:58.686Z,28.25
2018-06-10T21:29:34.443Z,28.74
2018-06-10T21:32:10.812Z,29.20
2018-06-10T21:34:48.366Z,27.72
2018-06-10T21:37:25.746Z,28.03
2018-06-10T21:40:01.878Z,27.58
2018-06-10T21:42:38.431Z,27.15
2018-06-10T21:45:14.763Z,27.31
2018-06-10T21:47:51.279Z,27.68
2018-06-10T21:50:27.216Z,26.74
2018-06-10T21:53:05.299Z,27.08
2018-06-10T21:55:42.863Z,27.42
2018-06-10T21:58:19.479Z,27.77
2018-06-10T22:00:55.759Z,26.83
2018-06-10T22:03:33.073Z,27.03
2018-06-10T22:06:10.327Z,26.88
2018-06-10T22:08:46.308Z,27.49
2018-06-10T22:11:20.258Z,26.99
2018-06-10T22:13:56.425Z,27.28
2018-06-10T22:16:32.855Z,28.17
2018-06-10T22:19:09.745Z,29.21
2018-06-10T22:21:45.748Z,29.55
2018-06-10T22:24:22.431Z,29.23
2018-06-10T22:26:59.662Z,28.74
2018-06-10T22:29:37.268Z,29.96
2018-06-10T22:32:11.226Z,30.24
2018-06-10T22:34:47.433Z,29.74
2018-06-10T22:37:23.792Z,29.53
2018-06-10T22:40:01.162Z,30.74
2018-06-10T22:42:37.270Z,30.75
2018-06-10T22:45:13.833Z,29.70
2018-06-10T22:47:50.296Z,30.30
2018-06-10T22:50:26.265Z,28.81
2018-06-10T22:53:17.422Z,29.06
2018-06-10T22:55:54.263Z,28.13
2018-06-10T22:58:30.531Z,29.29
2018-06-10T23:01:06.894Z,28.74
2018-06-10T23:03:43.338Z,28.03
2018-06-10T23:06:20.210Z,27.99
2018-06-10T23:08:56.674Z,28.17
2018-06-10T23:11:33.094Z,28.02
2018-06-10T23:14:09.320Z,27.60
2018-06-10T23:16:45.580Z,27.95
2018-06-10T23:19:21.488Z,27.62
2018-06-10T23:21:57.531Z,27.59
2018-06-10T23:24:33.701Z,27.66
2018-06-10T23:27:09.830Z,27.11
2018-06-10T23:29:46.212Z,27.01
2018-06-10T23:32:24.303Z,27.39
2018-06-10T23:35:00.955Z,26.94
2018-06-10T23:37:37.323Z,26.71
2018-06-10T23:40:11.434Z,27.47
2018-06-10T23:42:48.551Z,27.26
2018-06-10T23:45:24.774Z,26.42
2018-06-10T23:48:00.934Z,26.64
2018-06-10T23:50:37.092Z,27.12
2018-06-10T23:53:12.842Z,26.27
2018-06-10T23:55:49.205Z,27.09
2018-06-10T23:58:25.556Z,27.51
